Terminal Aerodrome Forecast
Issued by NWS

Home | Current Version | Previous Version | Text Only | Print | Product List | Glossary On
Versions: 1 2 3 4 5 6 7 8 9 10 11 12 13 14 15 16
436
FTUS41 KCAR 282341
TAFPQI
TAF
KPQI 282341Z 2900/2924 VRB03KT P6SM BKN100
     FM290500 00000KT 3SM BR BKN250
     FM290700 00000KT 3/4SM BR SCT002 OVC045
     FM291000 35005KT P6SM SCT100=

USA.gov is the U.S. government's official web portal to all federal, state and local government web resources and services.